sensor_id;sensor_type;location;lat;lon;timestamp;P1;durP1;ratioP1;P2;durP2;ratioP2
17794;SDS011;9021;50.882;4.326;2023-02-01T00:01:50;27.02;;;9.50;;
17794;SDS011;9021;50.882;4.326;2023-02-01T00:04:15;26.58;;;9.65;;
17794;SDS011;9021;50.882;4.326;2023-02-01T00:06:41;26.88;;;9.43;;
17794;SDS011;9021;50.882;4.326;2023-02-01T00:09:07;28.30;;;9.95;;
17794;SDS011;9021;50.882;4.326;2023-02-01T00:11:33;23.83;;;9.73;;
17794;SDS011;9021;50.882;4.326;2023-02-01T00:13:58;22.90;;;9.70;;
17794;SDS011;9021;50.882;4.326;2023-02-01T00:16:25;22.13;;;9.20;;
17794;SDS011;9021;50.882;4.326;2023-02-01T00:18:56;27.58;;;9.52;;
17794;SDS011;9021;50.882;4.326;2023-02-01T00:21:27;24.25;;;9.80;;
17794;SDS011;9021;50.882;4.326;2023-02-01T00:23:53;24.20;;;9.88;;
17794;SDS011;9021;50.882;4.326;2023-02-01T00:26:19;26.35;;;9.30;;
17794;SDS011;9021;50.882;4.326;2023-02-01T00:28:49;25.95;;;9.75;;
17794;SDS011;9021;50.882;4.326;2023-02-01T00:31:15;22.75;;;9.13;;
17794;SDS011;9021;50.882;4.326;2023-02-01T00:33:41;22.73;;;9.60;;
17794;SDS011;9021;50.882;4.326;2023-02-01T00:36:07;30.38;;;8.65;;
17794;SDS011;9021;50.882;4.326;2023-02-01T00:38:34;22.10;;;8.55;;
17794;SDS011;9021;50.882;4.326;2023-02-01T00:41:06;26.92;;;8.02;;
17794;SDS011;9021;50.882;4.326;2023-02-01T00:43:36;21.98;;;8.00;;
17794;SDS011;9021;50.882;4.326;2023-02-01T00:46:02;20.55;;;7.68;;
17794;SDS011;9021;50.882;4.326;2023-02-01T00:48:28;23.70;;;6.70;;
17794;SDS011;9021;50.882;4.326;2023-02-01T00:50:54;24.30;;;6.60;;
17794;SDS011;9021;50.882;4.326;2023-02-01T00:53:23;19.42;;;6.15;;
17794;SDS011;9021;50.882;4.326;2023-02-01T00:55:49;16.85;;;6.13;;
17794;SDS011;9021;50.882;4.326;2023-02-01T00:58:14;19.75;;;5.88;;
17794;SDS011;9021;50.882;4.326;2023-02-01T01:00:40;23.92;;;5.50;;
17794;SDS011;9021;50.882;4.326;2023-02-01T01:03:06;17.33;;;5.22;;
17794;SDS011;9021;50.882;4.326;2023-02-01T01:05:48;19.42;;;4.95;;
17794;SDS011;9021;50.882;4.326;2023-02-01T01:08:16;19.58;;;4.72;;
17794;SDS011;9021;50.882;4.326;2023-02-01T01:13:07;17.88;;;5.90;;
17794;SDS011;9021;50.882;4.326;2023-02-01T01:15:37;22.52;;;5.32;;
17794;SDS011;9021;50.882;4.326;2023-02-01T01:18:03;17.15;;;4.80;;
17794;SDS011;9021;50.882;4.326;2023-02-01T01:22:55;19.73;;;5.22;;
17794;SDS011;9021;50.882;4.326;2023-02-01T01:25:21;22.73;;;5.28;;
17794;SDS011;9021;50.882;4.326;2023-02-01T01:27:46;18.35;;;5.57;;
17794;SDS011;9021;50.882;4.326;2023-02-01T01:30:12;18.60;;;5.47;;
17794;SDS011;9021;50.882;4.326;2023-02-01T01:35:04;17.25;;;4.95;;
17794;SDS011;9021;50.882;4.326;2023-02-01T01:39:56;15.10;;;4.60;;
17794;SDS011;9021;50.882;4.326;2023-02-01T01:42:22;21.83;;;4.78;;
17794;SDS011;9021;50.882;4.326;2023-02-01T01:47:22;20.65;;;4.35;;
17794;SDS011;9021;50.882;4.326;2023-02-01T01:49:50;24.35;;;4.93;;
17794;SDS011;9021;50.882;4.326;2023-02-01T01:52:15;18.48;;;4.25;;
17794;SDS011;9021;50.882;4.326;2023-02-01T01:54:43;19.27;;;4.43;;
17794;SDS011;9021;50.882;4.326;2023-02-01T01:57:17;18.02;;;4.15;;
17794;SDS011;9021;50.882;4.326;2023-02-01T01:59:46;17.70;;;3.85;;
17794;SDS011;9021;50.882;4.326;2023-02-01T02:02:15;19.13;;;4.20;;
17794;SDS011;9021;50.882;4.326;2023-02-01T02:04:41;17.13;;;3.75;;
17794;SDS011;9021;50.882;4.326;2023-02-01T02:07:14;16.88;;;3.80;;
17794;SDS011;9021;50.882;4.326;2023-02-01T02:09:44;17.65;;;4.20;;
17794;SDS011;9021;50.882;4.326;2023-02-01T02:14:36;17.45;;;3.88;;
17794;SDS011;9021;50.882;4.326;2023-02-01T02:19:48;20.73;;;3.60;;
17794;SDS011;9021;50.882;4.326;2023-02-01T02:31:02;17.10;;;3.83;;
17794;SDS011;9021;50.882;4.326;2023-02-01T02:33:37;16.60;;;3.80;;
17794;SDS011;9021;50.882;4.326;2023-02-01T02:36:17;16.38;;;4.07;;
17794;SDS011;9021;50.882;4.326;2023-02-01T02:38:59;17.55;;;3.20;;
17794;SDS011;9021;50.882;4.326;2023-02-01T02:41:58;17.13;;;3.78;;
17794;SDS011;9021;50.882;4.326;2023-02-01T02:53:35;15.93;;;3.58;;
17794;SDS011;9021;50.882;4.326;2023-02-01T02:56:26;15.95;;;4.20;;
17794;SDS011;9021;50.882;4.326;2023-02-01T02:59:12;21.95;;;4.15;;
17794;SDS011;9021;50.882;4.326;2023-02-01T03:01:59;15.27;;;3.40;;
17794;SDS011;9021;50.882;4.326;2023-02-01T03:04:43;19.48;;;4.05;;
17794;SDS011;9021;50.882;4.326;2023-02-01T03:07:13;18.90;;;3.90;;
17794;SDS011;9021;50.882;4.326;2023-02-01T03:09:58;18.98;;;3.38;;
17794;SDS011;9021;50.882;4.326;2023-02-01T03:12:29;16.45;;;3.45;;
17794;SDS011;9021;50.882;4.326;2023-02-01T03:15:20;15.40;;;3.78;;
17794;SDS011;9021;50.882;4.326;2023-02-01T03:18:06;21.17;;;3.53;;
17794;SDS011;9021;50.882;4.326;2023-02-01T03:20:43;17.58;;;3.90;;
17794;SDS011;9021;50.882;4.326;2023-02-01T03:23:11;23.50;;;4.18;;
17794;SDS011;9021;50.882;4.326;2023-02-01T03:25:40;15.63;;;3.22;;
17794;SDS011;9021;50.882;4.326;2023-02-01T03:30:37;19.95;;;3.88;;
17794;SDS011;9021;50.882;4.326;2023-02-01T03:33:07;18.30;;;4.20;;
17794;SDS011;9021;50.882;4.326;2023-02-01T03:41:52;17.73;;;3.50;;
17794;SDS011;9021;50.882;4.326;2023-02-01T03:44:24;18.27;;;3.50;;
17794;SDS011;9021;50.882;4.326;2023-02-01T03:46:59;16.88;;;3.08;;
17794;SDS011;9021;50.882;4.326;2023-02-01T03:49:32;23.98;;;4.30;;
17794;SDS011;9021;50.882;4.326;2023-02-01T03:52:01;13.75;;;3.50;;
17794;SDS011;9021;50.882;4.326;2023-02-01T03:54:28;16.73;;;3.38;;
17794;SDS011;9021;50.882;4.326;2023-02-01T03:56:55;20.63;;;3.60;;
17794;SDS011;9021;50.882;4.326;2023-02-01T03:59:24;20.88;;;4.00;;
17794;SDS011;9021;50.882;4.326;2023-02-01T04:01:50;15.80;;;3.60;;
17794;SDS011;9021;50.882;4.326;2023-02-01T04:04:16;19.85;;;3.75;;
17794;SDS011;9021;50.882;4.326;2023-02-01T04:06:45;15.57;;;3.42;;
17794;SDS011;9021;50.882;4.326;2023-02-01T04:09:11;19.73;;;3.75;;
17794;SDS011;9021;50.882;4.326;2023-02-01T04:11:37;22.17;;;4.85;;
17794;SDS011;9021;50.882;4.326;2023-02-01T04:14:03;20.90;;;3.40;;
17794;SDS011;9021;50.882;4.326;2023-02-01T04:16:29;21.98;;;3.28;;
17794;SDS011;9021;50.882;4.326;2023-02-01T04:18:58;17.50;;;4.07;;
17794;SDS011;9021;50.882;4.326;2023-02-01T04:21:24;21.20;;;3.40;;
17794;SDS011;9021;50.882;4.326;2023-02-01T04:23:50;17.60;;;3.20;;
17794;SDS011;9021;50.882;4.326;2023-02-01T04:26:15;20.20;;;3.83;;
17794;SDS011;9021;50.882;4.326;2023-02-01T04:28:41;20.50;;;3.47;;
17794;SDS011;9021;50.882;4.326;2023-02-01T04:31:07;25.63;;;3.90;;
17794;SDS011;9021;50.882;4.326;2023-02-01T04:33:33;17.60;;;3.17;;
17794;SDS011;9021;50.882;4.326;2023-02-01T04:35:58;16.65;;;3.97;;
17794;SDS011;9021;50.882;4.326;2023-02-01T04:38:24;18.17;;;4.50;;
17794;SDS011;9021;50.882;4.326;2023-02-01T04:40:51;18.65;;;3.33;;
17794;SDS011;9021;50.882;4.326;2023-02-01T04:43:17;24.13;;;3.83;;
17794;SDS011;9021;50.882;4.326;2023-02-01T04:45:46;24.45;;;4.75;;
17794;SDS011;9021;50.882;4.326;2023-02-01T04:48:13;19.30;;;3.70;;
17794;SDS011;9021;50.882;4.326;2023-02-01T04:50:39;23.20;;;4.32;;
17794;SDS011;9021;50.882;4.326;2023-02-01T04:53:05;22.17;;;3.60;;
17794;SDS011;9021;50.882;4.326;2023-02-01T04:55:31;19.92;;;3.53;;
17794;SDS011;9021;50.882;4.326;2023-02-01T04:57:56;24.58;;;3.63;;
17794;SDS011;9021;50.882;4.326;2023-02-01T05:00:22;21.65;;;3.85;;
17794;SDS011;9021;50.882;4.326;2023-02-01T05:02:47;15.05;;;3.30;;
17794;SDS011;9021;50.882;4.326;2023-02-01T05:05:13;12.27;;;2.80;;
17794;SDS011;9021;50.882;4.326;2023-02-01T05:07:39;21.63;;;3.70;;
17794;SDS011;9021;50.882;4.326;2023-02-01T05:10:04;21.23;;;3.45;;
17794;SDS011;9021;50.882;4.326;2023-02-01T05:12:30;16.60;;;3.22;;
17794;SDS011;9021;50.882;4.326;2023-02-01T05:15:14;23.45;;;3.38;;
17794;SDS011;9021;50.882;4.326;2023-02-01T05:17:40;18.15;;;3.15;;
17794;SDS011;9021;50.882;4.326;2023-02-01T05:20:06;16.38;;;3.83;;
17794;SDS011;9021;50.882;4.326;2023-02-01T05:22:33;19.90;;;3.80;;
17794;SDS011;9021;50.882;4.326;2023-02-01T05:24:58;26.15;;;4.50;;
17794;SDS011;9021;50.882;4.326;2023-02-01T05:27:24;25.27;;;4.45;;
17794;SDS011;9021;50.882;4.326;2023-02-01T05:29:50;17.17;;;3.83;;
17794;SDS011;9021;50.882;4.326;2023-02-01T05:32:15;17.30;;;3.78;;
17794;SDS011;9021;50.882;4.326;2023-02-01T05:34:41;17.98;;;3.65;;
17794;SDS011;9021;50.882;4.326;2023-02-01T05:37:06;18.38;;;4.65;;
17794;SDS011;9021;50.882;4.326;2023-02-01T05:39:32;18.48;;;4.20;;
17794;SDS011;9021;50.882;4.326;2023-02-01T05:41:58;17.30;;;3.30;;
17794;SDS011;9021;50.882;4.326;2023-02-01T05:44:23;15.13;;;3.03;;
17794;SDS011;9021;50.882;4.326;2023-02-01T05:46:49;19.60;;;3.58;;
17794;SDS011;9021;50.882;4.326;2023-02-01T05:49:17;19.30;;;3.42;;
17794;SDS011;9021;50.882;4.326;2023-02-01T05:51:42;19.20;;;3.00;;
17794;SDS011;9021;50.882;4.326;2023-02-01T05:54:08;14.35;;;3.15;;
17794;SDS011;9021;50.882;4.326;2023-02-01T05:59:00;19.17;;;3.83;;
17794;SDS011;9021;50.882;4.326;2023-02-01T06:01:25;18.60;;;3.42;;
17794;SDS011;9021;50.882;4.326;2023-02-01T06:03:51;17.65;;;3.83;;
17794;SDS011;9021;50.882;4.326;2023-02-01T06:06:16;18.95;;;3.38;;
17794;SDS011;9021;50.882;4.326;2023-02-01T06:08:43;16.67;;;3.20;;
17794;SDS011;9021;50.882;4.326;2023-02-01T06:11:09;20.35;;;3.70;;
17794;SDS011;9021;50.882;4.326;2023-02-01T06:13:35;25.10;;;4.07;;
17794;SDS011;9021;50.882;4.326;2023-02-01T06:16:01;26.08;;;3.70;;
17794;SDS011;9021;50.882;4.326;2023-02-01T06:18:27;21.05;;;3.97;;
17794;SDS011;9021;50.882;4.326;2023-02-01T06:20:55;20.85;;;3.47;;
17794;SDS011;9021;50.882;4.326;2023-02-01T06:23:22;22.85;;;3.88;;
17794;SDS011;9021;50.882;4.326;2023-02-01T06:25:59;18.60;;;3.50;;
17794;SDS011;9021;50.882;4.326;2023-02-01T06:28:29;23.17;;;3.78;;
17794;SDS011;9021;50.882;4.326;2023-02-01T06:30:56;18.83;;;3.78;;
17794;SDS011;9021;50.882;4.326;2023-02-01T06:33:22;24.35;;;4.18;;
17794;SDS011;9021;50.882;4.326;2023-02-01T06:35:58;16.95;;;5.00;;
17794;SDS011;9021;50.882;4.326;2023-02-01T06:38:24;16.80;;;3.42;;
17794;SDS011;9021;50.882;4.326;2023-02-01T06:40:54;23.00;;;4.63;;
17794;SDS011;9021;50.882;4.326;2023-02-01T06:43:22;22.30;;;4.28;;
17794;SDS011;9021;50.882;4.326;2023-02-01T06:45:48;23.55;;;3.50;;
17794;SDS011;9021;50.882;4.326;2023-02-01T06:50:40;17.10;;;3.38;;
17794;SDS011;9021;50.882;4.326;2023-02-01T06:53:05;23.63;;;3.58;;
17794;SDS011;9021;50.882;4.326;2023-02-01T06:55:31;20.33;;;3.45;;
17794;SDS011;9021;50.882;4.326;2023-02-01T06:57:56;18.75;;;3.97;;
17794;SDS011;9021;50.882;4.326;2023-02-01T07:00:22;26.52;;;4.35;;
17794;SDS011;9021;50.882;4.326;2023-02-01T07:02:48;28.23;;;4.72;;
17794;SDS011;9021;50.882;4.326;2023-02-01T07:07:40;15.85;;;4.78;;
17794;SDS011;9021;50.882;4.326;2023-02-01T07:10:06;17.55;;;3.15;;
17794;SDS011;9021;50.882;4.326;2023-02-01T07:12:32;22.05;;;4.28;;
17794;SDS011;9021;50.882;4.326;2023-02-01T07:14:57;22.60;;;5.03;;
17794;SDS011;9021;50.882;4.326;2023-02-01T07:17:23;21.52;;;3.90;;
17794;SDS011;9021;50.882;4.326;2023-02-01T07:19:49;18.90;;;4.35;;
17794;SDS011;9021;50.882;4.326;2023-02-01T07:22:17;21.40;;;4.57;;
17794;SDS011;9021;50.882;4.326;2023-02-01T07:24:43;27.73;;;4.32;;
17794;SDS011;9021;50.882;4.326;2023-02-01T07:27:09;17.55;;;3.70;;
17794;SDS011;9021;50.882;4.326;2023-02-01T07:29:34;18.85;;;4.15;;
17794;SDS011;9021;50.882;4.326;2023-02-01T07:32:00;14.23;;;3.55;;
17794;SDS011;9021;50.882;4.326;2023-02-01T07:34:27;16.38;;;3.38;;
17794;SDS011;9021;50.882;4.326;2023-02-01T07:36:53;22.08;;;3.42;;
17794;SDS011;9021;50.882;4.326;2023-02-01T07:39:19;15.88;;;3.58;;
17794;SDS011;9021;50.882;4.326;2023-02-01T07:41:45;20.10;;;3.95;;
17794;SDS011;9021;50.882;4.326;2023-02-01T07:44:11;23.70;;;3.85;;
17794;SDS011;9021;50.882;4.326;2023-02-01T07:46:36;23.90;;;4.45;;
17794;SDS011;9021;50.882;4.326;2023-02-01T07:49:04;16.98;;;3.65;;
17794;SDS011;9021;50.882;4.326;2023-02-01T07:51:30;18.40;;;3.38;;
17794;SDS011;9021;50.882;4.326;2023-02-01T07:53:55;20.77;;;3.80;;
17794;SDS011;9021;50.882;4.326;2023-02-01T07:56:21;20.70;;;4.10;;
17794;SDS011;9021;50.882;4.326;2023-02-01T07:58:50;23.55;;;3.83;;
17794;SDS011;9021;50.882;4.326;2023-02-01T08:01:18;23.30;;;9.75;;
17794;SDS011;9021;50.882;4.326;2023-02-01T08:03:46;25.98;;;4.95;;
17794;SDS011;9021;50.882;4.326;2023-02-01T08:06:13;17.83;;;3.90;;
17794;SDS011;9021;50.882;4.326;2023-02-01T08:08:39;18.73;;;4.32;;
17794;SDS011;9021;50.882;4.326;2023-02-01T08:11:06;20.17;;;3.63;;
17794;SDS011;9021;50.882;4.326;2023-02-01T08:13:35;23.30;;;3.92;;
17794;SDS011;9021;50.882;4.326;2023-02-01T08:16:02;25.02;;;4.78;;
17794;SDS011;9021;50.882;4.326;2023-02-01T08:18:29;13.68;;;3.45;;
17794;SDS011;9021;50.882;4.326;2023-02-01T08:20:55;19.23;;;3.60;;
17794;SDS011;9021;50.882;4.326;2023-02-01T08:25:48;20.67;;;4.03;;
17794;SDS011;9021;50.882;4.326;2023-02-01T08:28:13;18.20;;;3.58;;
17794;SDS011;9021;50.882;4.326;2023-02-01T08:30:39;16.60;;;3.28;;
17794;SDS011;9021;50.882;4.326;2023-02-01T08:33:07;20.48;;;3.72;;
17794;SDS011;9021;50.882;4.326;2023-02-01T08:35:37;19.67;;;4.68;;
17794;SDS011;9021;50.882;4.326;2023-02-01T08:38:03;23.17;;;5.05;;
17794;SDS011;9021;50.882;4.326;2023-02-01T08:40:28;17.95;;;3.58;;
17794;SDS011;9021;50.882;4.326;2023-02-01T08:42:54;22.10;;;5.78;;
17794;SDS011;9021;50.882;4.326;2023-02-01T08:45:21;13.05;;;3.05;;
17794;SDS011;9021;50.882;4.326;2023-02-01T08:47:51;19.30;;;4.05;;
17794;SDS011;9021;50.882;4.326;2023-02-01T08:50:18;22.10;;;4.45;;
17794;SDS011;9021;50.882;4.326;2023-02-01T08:52:44;19.13;;;3.50;;
17794;SDS011;9021;50.882;4.326;2023-02-01T08:55:10;18.35;;;4.25;;
17794;SDS011;9021;50.882;4.326;2023-02-01T08:57:37;15.50;;;3.03;;
17794;SDS011;9021;50.882;4.326;2023-02-01T09:00:04;18.65;;;3.65;;
17794;SDS011;9021;50.882;4.326;2023-02-01T09:02:30;17.15;;;4.05;;
17794;SDS011;9021;50.882;4.326;2023-02-01T09:04:56;26.33;;;7.15;;
17794;SDS011;9021;50.882;4.326;2023-02-01T09:07:22;29.85;;;5.18;;
17794;SDS011;9021;50.882;4.326;2023-02-01T09:09:47;22.33;;;4.05;;
17794;SDS011;9021;50.882;4.326;2023-02-01T09:12:13;18.90;;;4.93;;
17794;SDS011;9021;50.882;4.326;2023-02-01T09:14:39;72.28;;;8.35;;
17794;SDS011;9021;50.882;4.326;2023-02-01T09:17:04;152.60;;;8.95;;
17794;SDS011;9021;50.882;4.326;2023-02-01T09:19:31;36.35;;;4.78;;
17794;SDS011;9021;50.882;4.326;2023-02-01T09:21:56;28.65;;;4.45;;
17794;SDS011;9021;50.882;4.326;2023-02-01T09:24:22;18.23;;;3.75;;
17794;SDS011;9021;50.882;4.326;2023-02-01T09:26:48;65.75;;;22.00;;
17794;SDS011;9021;50.882;4.326;2023-02-01T09:29:14;285.92;;;15.70;;
17794;SDS011;9021;50.882;4.326;2023-02-01T09:31:40;87.38;;;6.50;;
17794;SDS011;9021;50.882;4.326;2023-02-01T09:34:06;21.02;;;3.90;;
17794;SDS011;9021;50.882;4.326;2023-02-01T09:38:59;19.20;;;3.60;;
17794;SDS011;9021;50.882;4.326;2023-02-01T09:46:57;16.60;;;3.30;;
17794;SDS011;9021;50.882;4.326;2023-02-01T09:49:27;16.25;;;3.28;;
17794;SDS011;9021;50.882;4.326;2023-02-01T09:51:59;18.13;;;3.97;;
17794;SDS011;9021;50.882;4.326;2023-02-01T09:54:29;15.35;;;4.38;;
17794;SDS011;9021;50.882;4.326;2023-02-01T09:57:18;24.63;;;5.57;;
17794;SDS011;9021;50.882;4.326;2023-02-01T09:59:52;15.25;;;3.13;;
17794;SDS011;9021;50.882;4.326;2023-02-01T10:02:26;20.50;;;3.40;;
17794;SDS011;9021;50.882;4.326;2023-02-01T10:04:57;16.30;;;3.38;;
17794;SDS011;9021;50.882;4.326;2023-02-01T10:07:34;14.85;;;3.42;;
17794;SDS011;9021;50.882;4.326;2023-02-01T10:10:13;14.75;;;3.03;;
17794;SDS011;9021;50.882;4.326;2023-02-01T10:15:38;18.17;;;5.20;;
17794;SDS011;9021;50.882;4.326;2023-02-01T10:21:08;16.10;;;3.50;;
17794;SDS011;9021;50.882;4.326;2023-02-01T10:23:56;22.35;;;4.32;;
17794;SDS011;9021;50.882;4.326;2023-02-01T10:26:32;16.70;;;3.37;;
17794;SDS011;9021;50.882;4.326;2023-02-01T10:29:02;14.75;;;3.70;;
17794;SDS011;9021;50.882;4.326;2023-02-01T10:31:30;19.27;;;3.85;;
17794;SDS011;9021;50.882;4.326;2023-02-01T10:34:01;17.17;;;3.10;;
17794;SDS011;9021;50.882;4.326;2023-02-01T10:36:41;12.60;;;2.92;;
17794;SDS011;9021;50.882;4.326;2023-02-01T10:39:15;59.85;;;4.45;;
17794;SDS011;9021;50.882;4.326;2023-02-01T10:41:40;62.95;;;5.05;;
17794;SDS011;9021;50.882;4.326;2023-02-01T10:44:10;19.73;;;3.67;;
17794;SDS011;9021;50.882;4.326;2023-02-01T10:46:38;29.20;;;3.67;;
17794;SDS011;9021;50.882;4.326;2023-02-01T10:49:04;17.30;;;3.47;;
17794;SDS011;9021;50.882;4.326;2023-02-01T10:54:20;12.82;;;3.70;;
17794;SDS011;9021;50.882;4.326;2023-02-01T10:56:57;24.42;;;5.35;;
17794;SDS011;9021;50.882;4.326;2023-02-01T10:59:24;18.35;;;3.33;;
17794;SDS011;9021;50.882;4.326;2023-02-01T11:01:51;27.48;;;10.77;;
17794;SDS011;9021;50.882;4.326;2023-02-01T11:04:27;26.02;;;7.82;;
17794;SDS011;9021;50.882;4.326;2023-02-01T11:07:13;11.80;;;2.45;;
17794;SDS011;9021;50.882;4.326;2023-02-01T11:09:48;17.70;;;5.85;;
17794;SDS011;9021;50.882;4.326;2023-02-01T11:15:13;14.88;;;3.00;;
17794;SDS011;9021;50.882;4.326;2023-02-01T11:17:44;16.00;;;3.38;;
17794;SDS011;9021;50.882;4.326;2023-02-01T11:20:13;11.95;;;2.15;;
17794;SDS011;9021;50.882;4.326;2023-02-01T11:22:48;11.43;;;2.25;;
17794;SDS011;9021;50.882;4.326;2023-02-01T11:25:19;14.80;;;2.78;;
17794;SDS011;9021;50.882;4.326;2023-02-01T11:27:46;10.90;;;2.85;;
17794;SDS011;9021;50.882;4.326;2023-02-01T11:30:16;15.05;;;2.97;;
17794;SDS011;9021;50.882;4.326;2023-02-01T11:32:47;13.98;;;2.60;;
17794;SDS011;9021;50.882;4.326;2023-02-01T11:35:19;13.20;;;2.70;;
17794;SDS011;9021;50.882;4.326;2023-02-01T11:37:48;14.13;;;2.72;;
17794;SDS011;9021;50.882;4.326;2023-02-01T11:45:24;19.42;;;3.05;;
17794;SDS011;9021;50.882;4.326;2023-02-01T11:47:53;11.80;;;2.92;;
17794;SDS011;9021;50.882;4.326;2023-02-01T12:01:27;10.82;;;2.45;;
17794;SDS011;9021;50.882;4.326;2023-02-01T12:06:46;12.68;;;2.38;;
17794;SDS011;9021;50.882;4.326;2023-02-01T12:15:12;10.38;;;1.90;;
17794;SDS011;9021;50.882;4.326;2023-02-01T12:18:08;9.95;;;2.05;;
17794;SDS011;9021;50.882;4.326;2023-02-01T12:32:12;8.55;;;1.65;;
17794;SDS011;9021;50.882;4.326;2023-02-01T12:37:45;10.57;;;1.70;;
17794;SDS011;9021;50.882;4.326;2023-02-01T12:43:02;10.50;;;1.67;;
17794;SDS011;9021;50.882;4.326;2023-02-01T12:45:56;9.10;;;1.60;;
17794;SDS011;9021;50.882;4.326;2023-02-01T12:48:31;6.97;;;1.73;;
17794;SDS011;9021;50.882;4.326;2023-02-01T12:51:18;7.93;;;1.73;;
17794;SDS011;9021;50.882;4.326;2023-02-01T12:53:51;10.10;;;2.55;;
17794;SDS011;9021;50.882;4.326;2023-02-01T12:56:52;7.55;;;1.95;;
17794;SDS011;9021;50.882;4.326;2023-02-01T12:59:33;4.95;;;1.58;;
17794;SDS011;9021;50.882;4.326;2023-02-01T13:04:46;9.07;;;1.98;;
17794;SDS011;9021;50.882;4.326;2023-02-01T13:07:49;8.10;;;1.20;;
17794;SDS011;9021;50.882;4.326;2023-02-01T13:10:30;11.23;;;1.85;;
17794;SDS011;9021;50.882;4.326;2023-02-01T13:15:45;9.57;;;1.30;;
17794;SDS011;9021;50.882;4.326;2023-02-01T13:18:21;10.10;;;1.80;;
17794;SDS011;9021;50.882;4.326;2023-02-01T13:26:16;8.50;;;1.92;;
17794;SDS011;9021;50.882;4.326;2023-02-01T13:28:52;9.00;;;1.77;;
17794;SDS011;9021;50.882;4.326;2023-02-01T13:31:37;12.65;;;1.92;;
17794;SDS011;9021;50.882;4.326;2023-02-01T13:36:56;8.60;;;1.67;;
17794;SDS011;9021;50.882;4.326;2023-02-01T13:42:13;10.38;;;1.92;;
17794;SDS011;9021;50.882;4.326;2023-02-01T13:44:52;11.73;;;2.15;;
17794;SDS011;9021;50.882;4.326;2023-02-01T13:47:31;8.30;;;1.83;;
17794;SDS011;9021;50.882;4.326;2023-02-01T13:50:24;8.63;;;1.75;;
17794;SDS011;9021;50.882;4.326;2023-02-01T13:57:47;9.65;;;1.75;;
17794;SDS011;9021;50.882;4.326;2023-02-01T14:13:13;8.88;;;1.98;;
17794;SDS011;9021;50.882;4.326;2023-02-01T14:23:43;12.63;;;2.70;;
17794;SDS011;9021;50.882;4.326;2023-02-01T14:26:18;10.98;;;1.92;;
17794;SDS011;9021;50.882;4.326;2023-02-01T14:28:49;12.15;;;1.63;;
17794;SDS011;9021;50.882;4.326;2023-02-01T14:34:16;8.80;;;2.47;;
17794;SDS011;9021;50.882;4.326;2023-02-01T14:37:08;9.23;;;1.80;;
17794;SDS011;9021;50.882;4.326;2023-02-01T14:39:38;12.70;;;2.15;;
17794;SDS011;9021;50.882;4.326;2023-02-01T14:58:37;12.10;;;2.22;;
17794;SDS011;9021;50.882;4.326;2023-02-01T15:04:01;11.07;;;2.13;;
17794;SDS011;9021;50.882;4.326;2023-02-01T15:09:14;12.43;;;2.42;;
17794;SDS011;9021;50.882;4.326;2023-02-01T15:14:41;13.20;;;2.35;;
17794;SDS011;9021;50.882;4.326;2023-02-01T15:17:28;9.30;;;1.90;;
17794;SDS011;9021;50.882;4.326;2023-02-01T15:20:03;14.23;;;2.38;;
17794;SDS011;9021;50.882;4.326;2023-02-01T15:22:51;12.93;;;2.65;;
17794;SDS011;9021;50.882;4.326;2023-02-01T15:25:21;10.10;;;2.17;;
17794;SDS011;9021;50.882;4.326;2023-02-01T15:27:49;19.10;;;3.08;;
17794;SDS011;9021;50.882;4.326;2023-02-01T15:30:17;11.60;;;2.25;;
17794;SDS011;9021;50.882;4.326;2023-02-01T15:32:44;12.88;;;2.15;;
17794;SDS011;9021;50.882;4.326;2023-02-01T15:46:08;11.35;;;1.98;;
17794;SDS011;9021;50.882;4.326;2023-02-01T15:48:46;13.23;;;2.85;;
17794;SDS011;9021;50.882;4.326;2023-02-01T15:51:14;13.05;;;2.28;;
17794;SDS011;9021;50.882;4.326;2023-02-01T15:53:44;13.60;;;2.08;;
17794;SDS011;9021;50.882;4.326;2023-02-01T15:56:21;12.52;;;3.08;;
17794;SDS011;9021;50.882;4.326;2023-02-01T15:58:53;19.15;;;2.85;;
17794;SDS011;9021;50.882;4.326;2023-02-01T16:01:22;14.88;;;2.10;;
17794;SDS011;9021;50.882;4.326;2023-02-01T16:03:48;16.38;;;2.67;;
17794;SDS011;9021;50.882;4.326;2023-02-01T16:08:50;12.50;;;2.65;;
17794;SDS011;9021;50.882;4.326;2023-02-01T16:11:23;10.73;;;2.58;;
17794;SDS011;9021;50.882;4.326;2023-02-01T16:13:57;10.40;;;2.42;;
17794;SDS011;9021;50.882;4.326;2023-02-01T16:16:25;14.30;;;2.58;;
17794;SDS011;9021;50.882;4.326;2023-02-01T16:18:52;12.13;;;2.25;;
17794;SDS011;9021;50.882;4.326;2023-02-01T16:21:17;13.55;;;2.85;;
17794;SDS011;9021;50.882;4.326;2023-02-01T16:23:43;16.63;;;2.70;;
17794;SDS011;9021;50.882;4.326;2023-02-01T16:26:12;13.85;;;2.67;;
17794;SDS011;9021;50.882;4.326;2023-02-01T16:28:38;13.77;;;2.42;;
17794;SDS011;9021;50.882;4.326;2023-02-01T16:31:05;13.32;;;3.38;;
17794;SDS011;9021;50.882;4.326;2023-02-01T16:33:34;19.02;;;3.80;;
17794;SDS011;9021;50.882;4.326;2023-02-01T16:36:00;10.98;;;2.38;;
17794;SDS011;9021;50.882;4.326;2023-02-01T16:38:27;12.93;;;2.70;;
17794;SDS011;9021;50.882;4.326;2023-02-01T16:40:53;15.32;;;2.60;;
17794;SDS011;9021;50.882;4.326;2023-02-01T16:43:22;16.60;;;3.15;;
17794;SDS011;9021;50.882;4.326;2023-02-01T16:45:49;11.75;;;2.58;;
17794;SDS011;9021;50.882;4.326;2023-02-01T16:48:26;13.02;;;3.00;;
17794;SDS011;9021;50.882;4.326;2023-02-01T16:50:55;10.68;;;2.80;;
17794;SDS011;9021;50.882;4.326;2023-02-01T16:53:25;15.45;;;3.20;;
17794;SDS011;9021;50.882;4.326;2023-02-01T16:55:52;15.30;;;2.60;;
17794;SDS011;9021;50.882;4.326;2023-02-01T17:00:45;10.53;;;2.47;;
17794;SDS011;9021;50.882;4.326;2023-02-01T17:03:12;18.67;;;3.28;;
17794;SDS011;9021;50.882;4.326;2023-02-01T17:05:48;13.50;;;3.47;;
17794;SDS011;9021;50.882;4.326;2023-02-01T17:08:19;15.18;;;2.78;;
17794;SDS011;9021;50.882;4.326;2023-02-01T17:10:54;11.30;;;2.80;;
17794;SDS011;9021;50.882;4.326;2023-02-01T17:13:20;12.40;;;3.00;;
17794;SDS011;9021;50.882;4.326;2023-02-01T17:15:50;13.93;;;3.13;;
17794;SDS011;9021;50.882;4.326;2023-02-01T17:18:24;11.32;;;2.70;;
17794;SDS011;9021;50.882;4.326;2023-02-01T17:20:57;15.88;;;2.97;;
17794;SDS011;9021;50.882;4.326;2023-02-01T17:23:23;14.75;;;3.33;;
17794;SDS011;9021;50.882;4.326;2023-02-01T17:25:49;16.80;;;3.78;;
17794;SDS011;9021;50.882;4.326;2023-02-01T17:28:15;12.40;;;3.20;;
17794;SDS011;9021;50.882;4.326;2023-02-01T17:30:41;17.42;;;3.65;;
17794;SDS011;9021;50.882;4.326;2023-02-01T17:33:26;13.68;;;3.05;;
17794;SDS011;9021;50.882;4.326;2023-02-01T17:35:56;21.80;;;3.63;;
17794;SDS011;9021;50.882;4.326;2023-02-01T17:38:25;14.80;;;3.70;;
17794;SDS011;9021;50.882;4.326;2023-02-01T17:40:50;13.07;;;2.95;;
17794;SDS011;9021;50.882;4.326;2023-02-01T17:43:20;21.80;;;3.40;;
17794;SDS011;9021;50.882;4.326;2023-02-01T17:45:51;13.38;;;3.30;;
17794;SDS011;9021;50.882;4.326;2023-02-01T17:48:25;14.63;;;2.92;;
17794;SDS011;9021;50.882;4.326;2023-02-01T17:50:51;22.08;;;3.85;;
17794;SDS011;9021;50.882;4.326;2023-02-01T17:53:22;15.88;;;3.10;;
17794;SDS011;9021;50.882;4.326;2023-02-01T17:55:54;14.40;;;3.80;;
17794;SDS011;9021;50.882;4.326;2023-02-01T17:58:22;18.88;;;3.13;;
17794;SDS011;9021;50.882;4.326;2023-02-01T18:03:24;16.42;;;3.58;;
17794;SDS011;9021;50.882;4.326;2023-02-01T18:05:53;17.65;;;3.40;;
17794;SDS011;9021;50.882;4.326;2023-02-01T18:08:20;12.65;;;3.50;;
17794;SDS011;9021;50.882;4.326;2023-02-01T18:10:48;16.42;;;3.72;;
17794;SDS011;9021;50.882;4.326;2023-02-01T18:13:15;17.30;;;3.28;;
17794;SDS011;9021;50.882;4.326;2023-02-01T18:15:40;15.27;;;3.55;;
17794;SDS011;9021;50.882;4.326;2023-02-01T18:18:06;18.98;;;4.05;;
17794;SDS011;9021;50.882;4.326;2023-02-01T18:20:32;18.35;;;3.63;;
17794;SDS011;9021;50.882;4.326;2023-02-01T18:23:00;23.50;;;3.83;;
17794;SDS011;9021;50.882;4.326;2023-02-01T18:25:27;21.15;;;3.53;;
17794;SDS011;9021;50.882;4.326;2023-02-01T18:28:02;22.15;;;4.00;;